Archival Weather

Najaf

Najaf, Iraq (ORNI)

Report from: Tuesday, August 16, 2022 6:00 PM UTC
Current time: Monday, June 17, 2024 9:54 AM UTC

Current weather – Weather history – Daily summaries
Weather forecast

Present weatherDust
Temperature39.0°C (102.2°F)
Heat index36.4°C (97.5°F)
Dew point5.0°C (41.0°F)
Winds 14 kts (7.2 m/s, 16.1 mph) Northwest (320°)
Visibility1.9 mi. (3 km)
Altimeter29.56 in.Hg (1001 mB)
Relative humidity13 %
Density altitude3,242 ft. (988 m)
Flight conditions Instrument Meteorological Conditions
Raw dataORNI 161800Z 32014KT 3000 DU NSC 39/05 Q1001
An error has occurred. This application may no longer respond until reloaded. Reload 🗙